Barnstaple, United Kingdom
Current Conditions -  °F | °C
As of 3:50 PM on Wednesday 22 Oct 2014 (Local Time) from EGDX Reporting Station
Broken Clouds Broken Clouds  
Wind Chill: 57°   Ceiling: 2600
Heat Index: 57°   Visibility: 6mi
Dew Point: 48°   Wind: 16mph
Humidity: 72%   Direction: 270°W
Pressure: 30.27"   Gusts: NA
Location:  51.08°N, 4.06°W
Report Text: EGDX 221450Z 27014KT 9999 BKN026 14/09 Q1025 BLU
Loading
Personal Weather Stations






























Interactive Weather Map New forecast layout! Learn more

10-Day Weather Forecast

Advertisements
Track Severe Weather on mobile